Time,TemperatureF,DewpointF,PressureIn,WindDirection,WindDirectionDegrees,WindSpeedMPH,WindSpeedGustMPH,Humidity,HourlyPrecipIn,Conditions,Clouds,dailyrainin,SolarRadiationWatts/m^2,SoftwareType,DateUTC
2013-02-08 00:01:00,44.0,39.0,-100.00,North,349,2.0,12.0,83,0.00,,,0.00,0.000000,,2013-02-08 08:01:00,
2013-02-08 00:11:00,44.0,39.0,-100.00,North,349,2.0,12.0,83,0.00,,,0.00,0.000000,,2013-02-08 08:11:00,
2013-02-08 00:21:00,44.0,39.0,-100.00,North,349,2.0,12.0,83,0.00,,,0.00,0.000000,,2013-02-08 08:21:00,
2013-02-08 00:32:00,44.0,39.0,-100.00,North,349,2.0,12.0,83,0.00,,,0.00,0.000000,,2013-02-08 08:32:00,
2013-02-08 00:52:00,44.0,36.0,-100.00,NNW,337,4.0,12.0,73,0.00,,,0.00,0.000000,,2013-02-08 08:52:00,
2013-02-08 01:02:00,44.0,36.0,-100.00,NNW,337,4.0,12.0,73,0.00,,,0.00,0.000000,,2013-02-08 09:02:00,
2013-02-08 01:11:00,44.0,36.0,-100.00,NNW,337,4.0,12.0,73,0.00,,,0.00,0.000000,,2013-02-08 09:11:00,
2013-02-08 01:21:00,44.0,36.0,-100.00,NNW,337,4.0,12.0,73,0.00,,,0.00,0.000000,,2013-02-08 09:21:00,
2013-02-08 01:31:00,44.0,36.0,-100.00,NNW,337,4.0,12.0,73,0.00,,,0.00,0.000000,,2013-02-08 09:31:00,
2013-02-08 01:52:00,43.0,39.0,-100.00,NNW,343,3.0,9.0,85,0.00,,,0.00,0.000000,,2013-02-08 09:52:00,
2013-02-08 02:01:00,43.0,39.0,-100.00,NNW,343,3.0,9.0,85,0.00,,,0.00,0.000000,,2013-02-08 10:01:00,
2013-02-08 02:11:00,43.0,39.0,-100.00,NNW,343,3.0,9.0,85,0.00,,,0.00,0.000000,,2013-02-08 10:11:00,
2013-02-08 02:22:00,43.0,39.0,-100.00,NNW,343,3.0,9.0,85,0.00,,,0.00,0.000000,,2013-02-08 10:22:00,
2013-02-08 02:31:00,43.0,39.0,-100.00,NNW,343,3.0,9.0,85,0.00,,,0.00,0.000000,,2013-02-08 10:31:00,
2013-02-08 02:52:00,42.0,38.0,-100.00,NNW,336,1.0,9.0,86,0.00,,,0.00,0.000000,,2013-02-08 10:52:00,
2013-02-08 03:01:00,42.0,38.0,-100.00,NNW,336,1.0,9.0,86,0.00,,,0.00,0.000000,,2013-02-08 11:01:00,
2013-02-08 03:11:00,42.0,38.0,-100.00,NNW,336,1.0,9.0,86,0.00,,,0.00,0.000000,,2013-02-08 11:11:00,
2013-02-08 03:21:00,42.0,38.0,-100.00,NNW,336,1.0,9.0,86,0.00,,,0.00,0.000000,,2013-02-08 11:21:00,
2013-02-08 03:32:00,42.0,38.0,-100.00,NNW,336,1.0,9.0,86,0.00,,,0.00,0.000000,,2013-02-08 11:32:00,
2013-02-08 03:52:00,40.0,36.0,-100.00,NE,51,3.0,14.0,87,0.00,,,-99.99,0.000000,,2013-02-08 11:52:00,
2013-02-08 04:01:00,40.0,36.0,-100.00,NE,51,3.0,14.0,87,0.00,,,-99.99,0.000000,,2013-02-08 12:01:00,
2013-02-08 04:11:00,40.0,36.0,-100.00,NE,51,3.0,14.0,87,0.00,,,-99.99,0.000000,,2013-02-08 12:11:00,
2013-02-08 04:22:00,40.0,36.0,-100.00,NE,51,3.0,14.0,87,0.00,,,-99.99,0.000000,,2013-02-08 12:22:00,
2013-02-08 04:32:00,40.0,36.0,-100.00,NE,51,3.0,14.0,87,0.00,,,-99.99,0.000000,,2013-02-08 12:32:00,
2013-02-08 04:52:00,38.0,37.0,-100.00,ESE,113,9.0,15.0,96,0.02,,,-99.99,0.000000,,2013-02-08 12:52:00,
2013-02-08 05:01:00,38.0,37.0,-100.00,ESE,113,9.0,15.0,96,0.02,,,-99.99,0.000000,,2013-02-08 13:01:00,
2013-02-08 05:11:00,38.0,37.0,-100.00,ESE,113,9.0,15.0,96,0.02,,,-99.99,0.000000,,2013-02-08 13:11:00,
2013-02-08 05:21:00,38.0,37.0,-100.00,ESE,113,9.0,15.0,96,0.02,,,-99.99,0.000000,,2013-02-08 13:21:00,
2013-02-08 05:32:00,38.0,37.0,-100.00,ESE,113,9.0,15.0,96,0.02,,,-99.99,0.000000,,2013-02-08 13:32:00,
2013-02-08 05:52:00,37.0,36.0,-100.00,ESE,110,3.0,12.0,95,0.00,,,0.02,0.000000,,2013-02-08 13:52:00,
2013-02-08 06:02:00,37.0,36.0,-100.00,ESE,110,3.0,12.0,95,0.00,,,0.02,0.000000,,2013-02-08 14:02:00,
2013-02-08 06:11:00,37.0,36.0,-100.00,ESE,110,3.0,12.0,95,0.00,,,0.02,0.000000,,2013-02-08 14:11:00,
2013-02-08 06:21:00,37.0,36.0,-100.00,ESE,110,3.0,12.0,95,0.00,,,0.02,0.000000,,2013-02-08 14:21:00,
2013-02-08 06:32:00,37.0,36.0,-100.00,ESE,110,3.0,12.0,95,0.00,,,0.02,0.000000,,2013-02-08 14:32:00,
2013-02-08 06:52:00,37.0,35.0,-100.00,WNW,282,0.0,7.0,92,0.00,,,0.02,0.000000,,2013-02-08 14:52:00,
2013-02-08 07:02:00,37.0,35.0,-100.00,WNW,282,0.0,7.0,92,0.00,,,0.02,0.000000,,2013-02-08 15:02:00,
2013-02-08 07:11:00,37.0,35.0,-100.00,WNW,282,0.0,7.0,92,0.00,,,0.02,0.000000,,2013-02-08 15:11:00,
2013-02-08 07:21:00,37.0,35.0,-100.00,WNW,282,0.0,7.0,92,0.00,,,0.02,0.000000,,2013-02-08 15:21:00,
2013-02-08 07:31:00,37.0,35.0,-100.00,WNW,282,0.0,7.0,92,0.00,,,0.02,0.000000,,2013-02-08 15:31:00,
2013-02-08 08:01:00,36.0,32.0,-100.00,NW,308,4.0,11.0,86,0.00,,,0.02,14.000000,,2013-02-08 16:01:00,
2013-02-08 08:11:00,36.0,32.0,-100.00,NW,308,4.0,11.0,86,0.00,,,0.02,14.000000,,2013-02-08 16:11:00,
2013-02-08 08:21:00,36.0,32.0,-100.00,NW,308,4.0,11.0,86,0.00,,,0.02,14.000000,,2013-02-08 16:21:00,
2013-02-08 08:32:00,36.0,32.0,-100.00,NW,308,4.0,11.0,86,0.00,,,0.02,14.000000,,2013-02-08 16:32:00,
2013-02-08 08:52:00,34.0,32.0,-100.00,NW,323,1.0,11.0,93,0.03,,,0.05,39.000000,,2013-02-08 16:52:00,
2013-02-08 09:03:00,34.0,32.0,-100.00,NW,323,1.0,11.0,93,0.03,,,0.05,39.000000,,2013-02-08 17:03:00,
2013-02-08 09:11:00,34.0,32.0,-100.00,NW,323,1.0,11.0,93,0.03,,,0.05,39.000000,,2013-02-08 17:11:00,
2013-02-08 09:22:00,34.0,32.0,-100.00,NW,323,1.0,11.0,93,0.03,,,0.05,39.000000,,2013-02-08 17:22:00,
2013-02-08 09:32:00,34.0,32.0,-100.00,NW,323,1.0,11.0,93,0.03,,,0.05,39.000000,,2013-02-08 17:32:00,
2013-02-08 10:02:00,37.0,35.0,-100.00,NNW,330,4.0,9.0,92,0.01,,,0.06,83.000000,,2013-02-08 18:02:00,
2013-02-08 10:12:00,37.0,35.0,-100.00,NNW,330,4.0,9.0,92,0.01,,,0.06,83.000000,,2013-02-08 18:12:00,
2013-02-08 10:23:00,37.0,35.0,-100.00,NNW,330,4.0,9.0,92,0.01,,,0.06,83.000000,,2013-02-08 18:23:00,
2013-02-08 10:32:00,37.0,35.0,-100.00,NNW,330,4.0,9.0,92,0.01,,,0.06,83.000000,,2013-02-08 18:32:00,
2013-02-08 10:52:00,33.0,31.0,-100.00,North,352,0.0,6.0,94,0.08,,,0.14,55.000000,,2013-02-08 18:52:00,
2013-02-08 11:01:00,33.0,31.0,-100.00,North,352,0.0,6.0,94,0.08,,,0.14,55.000000,,2013-02-08 19:01:00,
2013-02-08 11:11:00,33.0,31.0,-100.00,North,352,0.0,6.0,94,0.08,,,0.14,55.000000,,2013-02-08 19:11:00,
2013-02-08 11:22:00,33.0,31.0,-100.00,North,352,0.0,6.0,94,0.08,,,0.14,55.000000,,2013-02-08 19:22:00,
2013-02-08 11:32:00,33.0,31.0,-100.00,North,352,0.0,6.0,94,0.08,,,0.14,55.000000,,2013-02-08 19:32:00,
2013-02-08 11:52:00,33.0,32.0,-100.00,North,3,0.0,9.0,95,0.07,,,0.21,106.000000,,2013-02-08 19:52:00,
2013-02-08 12:01:00,33.0,32.0,-100.00,North,3,0.0,9.0,95,0.07,,,0.21,106.000000,,2013-02-08 20:01:00,
2013-02-08 12:11:00,33.0,32.0,-100.00,North,3,0.0,9.0,95,0.07,,,0.21,106.000000,,2013-02-08 20:11:00,
2013-02-08 12:21:00,33.0,32.0,-100.00,North,3,0.0,9.0,95,0.07,,,0.21,106.000000,,2013-02-08 20:21:00,
2013-02-08 12:31:00,33.0,32.0,-100.00,North,3,0.0,9.0,95,0.07,,,0.21,106.000000,,2013-02-08 20:31:00,
2013-02-08 13:01:00,32.0,31.0,-100.00,West,275,0.0,3.0,96,0.00,,,0.21,21.000000,,2013-02-08 21:01:00,
2013-02-08 13:11:00,32.0,31.0,-100.00,West,275,0.0,3.0,96,0.00,,,0.21,21.000000,,2013-02-08 21:11:00,
2013-02-08 13:21:00,32.0,31.0,-100.00,West,275,0.0,3.0,96,0.00,,,0.21,21.000000,,2013-02-08 21:21:00,
2013-02-08 13:32:00,32.0,31.0,-100.00,West,275,0.0,3.0,96,0.00,,,0.21,21.000000,,2013-02-08 21:32:00,
2013-02-08 13:52:00,36.0,33.0,-100.00,WSW,253,2.0,6.0,87,0.00,,,0.21,52.000000,,2013-02-08 21:52:00,
2013-02-08 14:01:00,36.0,33.0,-100.00,WSW,253,2.0,6.0,87,0.00,,,0.21,52.000000,,2013-02-08 22:01:00,
2013-02-08 14:11:00,36.0,33.0,-100.00,WSW,253,2.0,6.0,87,0.00,,,0.21,52.000000,,2013-02-08 22:11:00,
2013-02-08 14:21:00,36.0,33.0,-100.00,WSW,253,2.0,6.0,87,0.00,,,0.21,52.000000,,2013-02-08 22:21:00,
2013-02-08 14:31:00,36.0,33.0,-100.00,WSW,253,2.0,6.0,87,0.00,,,0.21,52.000000,,2013-02-08 22:31:00,
2013-02-08 14:52:00,34.0,32.0,-100.00,SW,221,0.0,0.0,93,0.00,,,-99.99,39.000000,,2013-02-08 22:52:00,
2013-02-08 15:01:00,34.0,32.0,-100.00,SW,221,0.0,0.0,93,0.00,,,-99.99,39.000000,,2013-02-08 23:01:00,
2013-02-08 15:11:00,34.0,32.0,-100.00,SW,221,0.0,0.0,93,0.00,,,-99.99,39.000000,,2013-02-08 23:11:00,
2013-02-08 15:21:00,34.0,32.0,-100.00,SW,221,0.0,0.0,93,0.00,,,-99.99,39.000000,,2013-02-08 23:21:00,
2013-02-08 15:31:00,34.0,32.0,-100.00,SW,221,0.0,0.0,93,0.00,,,-99.99,39.000000,,2013-02-08 23:31:00,
2013-02-08 15:52:00,36.0,32.0,-100.00,SW,217,0.0,4.0,86,0.01,,,0.22,63.000000,,2013-02-08 23:52:00,
2013-02-08 16:02:00,36.0,32.0,-100.00,SW,217,0.0,4.0,86,0.01,,,0.22,63.000000,,2013-02-09 00:02:00,
2013-02-08 16:11:00,36.0,32.0,-100.00,SW,217,0.0,4.0,86,0.01,,,0.22,63.000000,,2013-02-09 00:11:00,
2013-02-08 16:21:00,36.0,32.0,-100.00,SW,217,0.0,4.0,86,0.01,,,0.22,63.000000,,2013-02-09 00:21:00,
2013-02-08 16:31:00,36.0,32.0,-100.00,SW,217,0.0,4.0,86,0.01,,,0.22,63.000000,,2013-02-09 00:31:00,
2013-02-08 16:52:00,33.0,32.0,-100.00,NNE,15,0.0,4.0,95,0.00,,,0.22,8.000000,,2013-02-09 00:52:00,
2013-02-08 17:01:00,33.0,32.0,-100.00,NNE,15,0.0,4.0,95,0.00,,,0.22,8.000000,,2013-02-09 01:01:00,
2013-02-08 17:11:00,33.0,32.0,-100.00,NNE,15,0.0,4.0,95,0.00,,,0.22,8.000000,,2013-02-09 01:11:00,
2013-02-08 17:21:00,33.0,32.0,-100.00,NNE,15,0.0,4.0,95,0.00,,,0.22,8.000000,,2013-02-09 01:21:00,
2013-02-08 17:31:00,33.0,32.0,-100.00,NNE,15,0.0,4.0,95,0.00,,,0.22,8.000000,,2013-02-09 01:31:00,
2013-02-08 18:52:00,33.0,29.0,-100.00,SSW,208,0.0,5.0,86,-99.99,,,0.22,0.000000,,2013-02-09 02:52:00,
2013-02-08 19:01:00,33.0,29.0,-100.00,SSW,208,0.0,5.0,86,-99.99,,,0.22,0.000000,,2013-02-09 03:01:00,
2013-02-08 19:11:00,33.0,29.0,-100.00,SSW,208,0.0,5.0,86,-99.99,,,0.22,0.000000,,2013-02-09 03:11:00,
2013-02-08 19:21:00,33.0,29.0,-100.00,SSW,208,0.0,5.0,86,-99.99,,,0.22,0.000000,,2013-02-09 03:21:00,
2013-02-08 19:31:00,33.0,29.0,-100.00,SSW,208,0.0,5.0,86,-99.99,,,0.22,0.000000,,2013-02-09 03:31:00,
2013-02-08 19:52:00,32.0,30.0,-100.00,North,11,0.0,3.0,94,0.00,,,0.22,0.000000,,2013-02-09 03:52:00,
2013-02-08 20:02:00,32.0,30.0,-100.00,North,11,0.0,3.0,94,0.00,,,0.22,0.000000,,2013-02-09 04:02:00,
2013-02-08 20:11:00,32.0,30.0,-100.00,North,11,0.0,3.0,94,0.00,,,0.22,0.000000,,2013-02-09 04:11:00,
2013-02-08 20:22:00,32.0,30.0,-100.00,North,11,0.0,3.0,94,0.00,,,0.22,0.000000,,2013-02-09 04:22:00,
2013-02-08 20:31:00,32.0,30.0,-100.00,North,11,0.0,3.0,94,0.00,,,0.22,0.000000,,2013-02-09 04:31:00,
2013-02-08 20:52:00,33.0,32.0,-100.00,NNW,347,0.0,4.0,97,0.00,,,0.22,0.000000,,2013-02-09 04:52:00,
2013-02-08 21:02:00,33.0,32.0,-100.00,NNW,347,0.0,4.0,97,0.00,,,0.22,0.000000,,2013-02-09 05:02:00,
2013-02-08 21:12:00,33.0,32.0,-100.00,NNW,347,0.0,4.0,97,0.00,,,0.22,0.000000,,2013-02-09 05:12:00,
2013-02-08 21:22:00,33.0,32.0,-100.00,NNW,347,0.0,4.0,97,0.00,,,0.22,0.000000,,2013-02-09 05:22:00,
2013-02-08 21:31:00,33.0,32.0,-100.00,NNW,347,0.0,4.0,97,0.00,,,0.22,0.000000,,2013-02-09 05:31:00,
2013-02-08 21:52:00,33.0,32.0,-100.00,NNW,346,0.0,0.0,97,0.00,,,0.22,0.000000,,2013-02-09 05:52:00,
2013-02-08 22:01:00,33.0,32.0,-100.00,NNW,346,0.0,0.0,97,0.00,,,0.22,0.000000,,2013-02-09 06:01:00,
2013-02-08 22:11:00,33.0,32.0,-100.00,NNW,346,0.0,0.0,97,0.00,,,0.22,0.000000,,2013-02-09 06:11:00,
2013-02-08 22:21:00,33.0,32.0,-100.00,NNW,346,0.0,0.0,97,0.00,,,0.22,0.000000,,2013-02-09 06:21:00,
2013-02-08 22:31:00,33.0,32.0,-100.00,NNW,346,0.0,0.0,97,0.00,,,0.22,0.000000,,2013-02-09 06:31:00,
2013-02-08 22:52:00,33.0,32.0,-100.00,WSW,242,0.0,2.0,98,0.00,,,0.22,0.000000,,2013-02-09 06:52:00,
2013-02-08 23:01:00,33.0,32.0,-100.00,WSW,242,0.0,2.0,98,0.00,,,0.22,0.000000,,2013-02-09 07:01:00,
2013-02-08 23:11:00,33.0,32.0,-100.00,WSW,242,0.0,2.0,98,0.00,,,0.22,0.000000,,2013-02-09 07:11:00,
2013-02-08 23:21:00,33.0,32.0,-100.00,WSW,242,0.0,2.0,98,0.00,,,0.22,0.000000,,2013-02-09 07:21:00,
2013-02-08 23:31:00,33.0,32.0,-100.00,WSW,242,0.0,2.0,98,0.00,,,0.22,0.000000,,2013-02-09 07:31:00,
2013-02-08 23:52:00,32.0,31.0,-100.00,NW,306,0.0,0.0,97,0.00,,,0.22,0.000000,,2013-02-09 07:52:00,